Pocahontas, Tennessee
Current Conditions -  °F | °C
As of 8:55 PM on Sunday 23 Nov 2014 (Local Time) from KCRX Reporting Station
Overcast Overcast  
Wind Chill: 63°   Ceiling: 1700
Heat Index: 63°   Visibility: 10mi
Dew Point: 57°   Wind: 9mph
Humidity: 82%   Direction: 200°SSW
Pressure: 29.51"   Gusts: NA
Location:  35.05°N, 88.8°W
Report Text: KCRX 240255Z AUTO 20008KT 10SM BKN017 BKN023 OVC028 17/14 A2951 RMK AO2
Loading
Personal Weather Stations






























Interactive Weather Map New forecast layout! Learn more

10-Day Weather Forecast

Advertisements
Track Severe Weather on mobile